Impacts TAF Board
For situational awareness. Not to be used for flight planning purposes.
IDs:

KMSY - New Orleans/Armstron, LA, US

Issued at 1120 UTC 19 Feb 2020
Updated at 1232 UTC 19 Feb 2020
Potential Impact None Slight Moderate High
Time1215Z 19/13Z 19/14Z 19/15Z 19/16Z 19/17Z 19/18Z 19/19Z 19/20Z 19/21Z 19/22Z 19/23Z 20/00Z 20/01Z>>
Type OBS PRVL PRVL PRVL PRVL PRVL PRVL PRVL PRVL PRVL PRVL PRVL PRVL PRVL
VIS 7 5 5 5 >6 >6 >6 >6 >6 >6 >6 >6 >6 >6
CIG 80 3 3 3 10 10 10 10 10 10 10 10 10 10
Cover OVC OVC OVC OVC OVC OVC OVC OVC OVC OVC OVC OVC OVC OVC
FltCat VFR LIFR LIFR LIFR MVFR MVFR MVFR MVFR MVFR MVFR MVFR MVFR MVFR MVFR
WX -- BR VCSH BR VCSH BR VCSH VCSH VCSH VCSH VCSH VCSH VCSH VCSH VCSH VCSH VCSH
WDir 40 VRB VRB VRB 40 40 40 40 40 40 40 40 40 40
WSpd 6 3 3 3 5 5 5 5 5 5 5 5 5 5
WGst -- -- -- -- -- -- -- -- -- -- -- -- -- --
R01/19
XWnd -3 VRB VRB VRB -2 -2 -2 -2 -2 -2 -2 -2 -2 -2
HWnd 5 VRB VRB VRB 5 5 5 5 5 5 5 5 5 5
R10/28
XWnd 5 VRB VRB VRB 5 5 5 5 5 5 5 5 5 5
HWnd 3 VRB VRB VRB 2 2 2 2 2 2 2 2 2 2
Raw TAF
KMSY 191120Z 1912/2018 35004KT 6SM BR VCSH BKN004 OVC009
  FM191300 VRB03KT 5SM BR VCSH OVC003
  FM191600 04005KT P6SM VCSH OVC010
  FM200600 VRB04KT 4SM BR OVC003


Raw METAR
KMSY 191215Z 04006KT 7SM SCT006 BKN080 OVC095 20/18 A3016 RMK AO2 T02000178 $
KMSY 191200Z 03006KT 6SM BR BKN006 OVC080 20/18 A3015 RMK AO2 T02000178 $
KMSY 191153Z 02006KT 10SM BKN004 OVC085 20/18 A3015 RMK AO2 SLP214 60000 T02000178 10211 20200 51012 $
KMSY 191140Z 03006KT 9SM SCT004 OVC085 20/18 A3014 RMK AO2 T02000183 $
KMSY 191053Z 35004KT 6SM BR BKN004 OVC009 20/18 A3014 RMK AO2 RAE05 SLP209 P0000 T02000183 $
KMSY 191050Z 34004KT 7SM BKN004 OVC009 20/18 A3014 RMK AO2 RAE05 P0000 $
KMSY 191039Z 35003KT 7SM SCT004 BKN009 20/18 A3013 RMK AO2 RAE05 P0000 T02000183 $
KMSY 191000Z 32006KT 4SM -RA BR SCT008 BKN045 OVC060 21/19 A3012 RMK AO2 P0000 T02110194 $
KMSY 190953Z 00000KT 3SM BR BKN006 BKN031 OVC060 21/20 A3012 RMK AO2 RAB25 SLP202 P0000 T02110200 $
KMSY 190946Z 00000KT 2SM -RA BR BKN006 BKN013 OVC029 21/20 A3012 RMK AO2 RAB25 P0000 T02110200
KMSY 190934Z 20003KT 1/2SM RA BR OVC004 21/20 A3012 RMK AO2 SFC VIS 1 RAB25 P0000 T02110200 RVRNO

METAR Board
Radar Display
Forecast Discussion
For situational awareness. Not to be used for flight planning purposes.